createdAt,value
2022-12-31T00:01:27.195Z,98.48
2022-12-31T00:03:54.886Z,98.51
2022-12-31T00:06:27.543Z,98.59
2022-12-31T00:08:55.709Z,98.50
2022-12-31T00:11:23.729Z,98.64
2022-12-31T00:13:50.585Z,98.62
2022-12-31T00:16:22.788Z,98.78
2022-12-31T00:18:52.103Z,98.86
2022-12-31T00:21:19.733Z,98.89
2022-12-31T00:23:46.275Z,98.87
2022-12-31T00:26:16.276Z,98.88
2022-12-31T00:28:43.590Z,98.84
2022-12-31T00:31:18.902Z,98.84
2022-12-31T00:33:46.294Z,98.87
2022-12-31T00:36:18.794Z,98.84
2022-12-31T00:38:47.040Z,98.84
2022-12-31T00:41:14.883Z,98.88
2022-12-31T00:43:41.929Z,98.96
2022-12-31T00:46:13.830Z,98.95
2022-12-31T00:48:40.391Z,99.09
2022-12-31T00:51:08.806Z,98.89
2022-12-31T00:53:36.096Z,99.03
2022-12-31T00:56:09.920Z,99.06
2022-12-31T00:58:36.374Z,99.06
2022-12-31T01:01:16.079Z,99.02
2022-12-31T01:03:42.770Z,98.98
2022-12-31T01:06:09.618Z,98.95
2022-12-31T01:08:36.693Z,99.01
2022-12-31T01:11:18.971Z,98.88
2022-12-31T01:13:47.055Z,98.79
2022-12-31T01:16:15.095Z,98.91
2022-12-31T01:18:42.480Z,98.85
2022-12-31T01:21:11.502Z,98.79
2022-12-31T01:23:39.162Z,98.83
2022-12-31T01:26:07.760Z,98.98
2022-12-31T01:28:34.374Z,99.11
2022-12-31T01:31:09.218Z,98.74
2022-12-31T01:33:36.067Z,98.80
2022-12-31T01:36:13.910Z,98.77
2022-12-31T01:38:41.531Z,98.81
2022-12-31T01:41:12.491Z,98.85
2022-12-31T01:43:46.542Z,98.74
2022-12-31T01:46:17.702Z,98.79
2022-12-31T01:48:48.850Z,98.92
2022-12-31T01:51:15.693Z,98.83
2022-12-31T01:53:43.334Z,98.83
2022-12-31T01:56:10.232Z,98.87
2022-12-31T01:58:43.040Z,98.78
2022-12-31T02:01:12.051Z,98.71
2022-12-31T02:03:38.946Z,99.05
2022-12-31T02:06:11.763Z,99.05
2022-12-31T02:08:42.162Z,99.05
2022-12-31T02:11:38.589Z,98.81
2022-12-31T02:14:13.196Z,98.93
2022-12-31T02:17:04.215Z,98.77
2022-12-31T02:19:57.033Z,98.96
2022-12-31T02:23:02.242Z,98.86
2022-12-31T02:25:51.503Z,98.92
2022-12-31T02:29:11.348Z,98.85
2022-12-31T02:31:47.275Z,98.82
2022-12-31T02:34:24.909Z,98.93
2022-12-31T02:36:54.598Z,98.77
2022-12-31T02:39:21.732Z,98.86
2022-12-31T02:41:52.267Z,98.78
2022-12-31T02:44:31.570Z,98.95
2022-12-31T02:47:10.468Z,98.92
2022-12-31T02:49:52.909Z,99.13
2022-12-31T02:52:37.293Z,98.86
2022-12-31T02:55:14.416Z,99.03
2022-12-31T02:57:55.751Z,99.03
2022-12-31T03:00:41.655Z,98.97
2022-12-31T03:03:09.207Z,99.07
2022-12-31T03:05:41.517Z,99.04
2022-12-31T03:08:08.341Z,98.88
2022-12-31T03:10:35.542Z,98.84
2022-12-31T03:13:02.227Z,99.01
2022-12-31T03:15:33.941Z,99.06
2022-12-31T03:18:03.256Z,98.92
2022-12-31T03:21:03.601Z,98.94
2022-12-31T03:23:47.526Z,99.01
2022-12-31T03:26:13.922Z,98.88
2022-12-31T03:28:42.781Z,98.93
2022-12-31T03:31:09.500Z,98.98
2022-12-31T03:33:39.374Z,98.92
2022-12-31T03:36:14.699Z,98.99
2022-12-31T03:38:41.595Z,98.94
2022-12-31T03:41:10.724Z,98.96
2022-12-31T03:43:37.190Z,99.10
2022-12-31T03:46:03.659Z,99.08
2022-12-31T03:48:30.217Z,98.97
2022-12-31T03:50:56.643Z,99.15
2022-12-31T03:53:23.169Z,98.96
2022-12-31T03:55:53.941Z,99.32
2022-12-31T03:58:21.632Z,99.10
2022-12-31T04:00:48.340Z,98.99
2022-12-31T04:03:14.790Z,98.76
2022-12-31T04:05:41.371Z,99.17
2022-12-31T04:08:07.834Z,99.08
2022-12-31T04:10:34.296Z,99.14
2022-12-31T04:13:04.264Z,99.20
2022-12-31T04:15:30.665Z,99.13
2022-12-31T04:17:57.132Z,98.90
2022-12-31T04:20:23.561Z,99.12
2022-12-31T04:22:50.012Z,99.00
2022-12-31T04:25:16.405Z,98.96
2022-12-31T04:27:43.803Z,99.11
2022-12-31T04:30:12.447Z,98.96
2022-12-31T04:32:39.009Z,99.24
2022-12-31T04:35:06.300Z,99.14
2022-12-31T04:37:32.742Z,99.00
2022-12-31T04:40:05.767Z,99.14
2022-12-31T04:42:32.861Z,98.99
2022-12-31T04:44:59.287Z,99.11
2022-12-31T04:47:25.733Z,99.16
2022-12-31T04:49:54.899Z,99.24
2022-12-31T04:52:21.760Z,99.34
2022-12-31T04:54:48.162Z,99.05
2022-12-31T04:57:14.603Z,99.12
2022-12-31T04:59:41.006Z,99.13
2022-12-31T05:02:07.733Z,99.09
2022-12-31T05:04:34.283Z,99.08
2022-12-31T05:07:00.733Z,99.09
2022-12-31T05:09:28.327Z,99.24
2022-12-31T05:11:55.062Z,99.05
2022-12-31T05:14:21.648Z,99.27
2022-12-31T05:16:48.200Z,99.10
2022-12-31T05:19:14.678Z,99.29
2022-12-31T05:21:41.382Z,99.24
2022-12-31T05:24:08.317Z,99.22
2022-12-31T05:26:35.404Z,99.10
2022-12-31T05:29:02.060Z,99.26
2022-12-31T05:31:28.610Z,99.33
2022-12-31T05:33:55.234Z,99.30
2022-12-31T05:36:21.622Z,99.22
2022-12-31T05:38:48.079Z,99.30
2022-12-31T05:41:14.573Z,99.36
2022-12-31T05:43:40.999Z,99.31
2022-12-31T05:46:07.885Z,99.31
2022-12-31T05:48:34.361Z,99.08
2022-12-31T05:51:00.847Z,99.46
2022-12-31T05:53:27.279Z,99.21
2022-12-31T05:55:53.686Z,99.38
2022-12-31T05:58:20.159Z,99.39
2022-12-31T06:00:46.546Z,99.37
2022-12-31T06:03:13.323Z,99.42
2022-12-31T06:05:43.920Z,99.41
2022-12-31T06:08:12.152Z,99.44
2022-12-31T06:10:39.584Z,99.60
2022-12-31T06:13:06.301Z,99.60
2022-12-31T06:15:32.938Z,99.51
2022-12-31T06:17:59.493Z,99.63
2022-12-31T06:20:26.089Z,99.64
2022-12-31T06:22:54.920Z,99.54
2022-12-31T06:25:21.365Z,99.53
2022-12-31T06:27:47.799Z,99.62
2022-12-31T06:30:14.445Z,99.54
2022-12-31T06:32:40.980Z,99.76
2022-12-31T06:35:07.858Z,99.56
2022-12-31T06:37:34.585Z,99.44
2022-12-31T06:40:01.330Z,99.86
2022-12-31T06:42:31.592Z,99.70
2022-12-31T06:44:59.176Z,99.78
2022-12-31T06:47:26.129Z,99.77
2022-12-31T06:49:53.107Z,99.62
2022-12-31T06:52:19.753Z,99.63
2022-12-31T06:54:46.805Z,99.73
2022-12-31T06:57:13.554Z,99.67
2022-12-31T06:59:40.316Z,99.68
2022-12-31T07:02:31.601Z,99.68
2022-12-31T07:05:12.941Z,99.65
2022-12-31T07:07:56.177Z,99.85
2022-12-31T07:10:44.127Z,99.62
2022-12-31T07:13:23.691Z,99.81
2022-12-31T07:16:26.240Z,99.73
2022-12-31T07:19:01.805Z,99.80
2022-12-31T07:21:34.964Z,99.76
2022-12-31T07:24:01.800Z,99.75
2022-12-31T07:26:43.480Z,99.84
2022-12-31T07:29:46.281Z,99.79
2022-12-31T07:32:44.386Z,99.98
2022-12-31T07:35:36.109Z,99.94
2022-12-31T07:38:12.463Z,99.91
2022-12-31T07:41:09.278Z,99.96
2022-12-31T07:43:55.256Z,99.92
2022-12-31T07:46:34.823Z,99.97
2022-12-31T07:49:01.979Z,99.90
2022-12-31T07:51:28.693Z,99.82
2022-12-31T07:53:55.095Z,100.00
2022-12-31T07:56:21.569Z,99.86
2022-12-31T07:58:52.544Z,100.00
2022-12-31T08:01:57.675Z,100.00
2022-12-31T08:04:39.345Z,99.92
2022-12-31T08:07:20.995Z,99.95
2022-12-31T08:10:05.535Z,100.00
2022-12-31T08:12:35.859Z,99.95
2022-12-31T08:15:02.722Z,99.99
2022-12-31T08:17:29.311Z,99.84
2022-12-31T08:19:55.951Z,100.00
2022-12-31T08:22:37.609Z,99.86
2022-12-31T08:25:08.779Z,99.77
2022-12-31T08:27:50.420Z,99.94
2022-12-31T08:30:20.772Z,99.97
2022-12-31T08:33:13.224Z,100.00
2022-12-31T08:36:08.911Z,100.00
2022-12-31T08:39:09.276Z,100.00
2022-12-31T08:41:45.114Z,99.92
2022-12-31T08:44:32.806Z,99.89
2022-12-31T08:47:02.214Z,100.00
2022-12-31T08:49:31.999Z,100.00
2022-12-31T08:51:59.706Z,99.98
2022-12-31T08:54:26.741Z,99.85
2022-12-31T08:57:00.918Z,100.00
2022-12-31T08:59:43.610Z,99.93
2022-12-31T09:02:10.074Z,99.89
2022-12-31T09:04:54.775Z,99.85
2022-12-31T09:07:27.403Z,99.82
2022-12-31T09:10:26.041Z,99.98
2022-12-31T09:13:07.323Z,99.87
2022-12-31T09:15:41.564Z,99.93
2022-12-31T09:18:09.377Z,99.96
2022-12-31T09:20:44.716Z,99.92
2022-12-31T09:23:12.860Z,99.90
2022-12-31T09:25:50.182Z,99.96
2022-12-31T09:28:37.688Z,99.90
2022-12-31T09:31:13.393Z,99.85
2022-12-31T09:33:56.122Z,99.90
2022-12-31T09:36:32.026Z,99.95
2022-12-31T09:39:14.274Z,100.00
2022-12-31T09:42:17.799Z,99.97
2022-12-31T09:45:26.291Z,99.79
2022-12-31T09:47:52.770Z,99.78
2022-12-31T09:50:37.644Z,99.67
2022-12-31T09:53:10.519Z,99.85
2022-12-31T09:55:45.461Z,99.59
2022-12-31T09:58:51.330Z,99.58
2022-12-31T10:01:25.826Z,99.22
2022-12-31T10:04:06.319Z,99.68
2022-12-31T10:07:03.958Z,99.56
2022-12-31T10:10:01.502Z,99.54
2022-12-31T10:13:12.832Z,99.40
2022-12-31T10:16:24.835Z,99.28
2022-12-31T10:19:16.922Z,99.39
2022-12-31T10:22:28.028Z,99.19
2022-12-31T10:25:19.839Z,98.96
2022-12-31T10:28:21.193Z,98.80
2022-12-31T10:31:26.038Z,98.92
2022-12-31T10:34:12.517Z,98.70
2022-12-31T10:36:55.163Z,98.73
2022-12-31T10:39:27.129Z,98.53
2022-12-31T10:42:18.619Z,98.28
2022-12-31T10:45:20.857Z,98.42
2022-12-31T10:48:18.736Z,98.21
2022-12-31T10:51:20.776Z,98.28
2022-12-31T10:54:37.342Z,98.15
2022-12-31T10:58:03.597Z,98.20
2022-12-31T11:00:38.405Z,98.11
2022-12-31T11:03:38.988Z,98.27
2022-12-31T11:06:11.352Z,98.22
2022-12-31T11:09:07.673Z,98.22
2022-12-31T11:11:43.018Z,98.25
2022-12-31T11:14:34.040Z,98.10
2022-12-31T11:17:18.661Z,98.24
2022-12-31T11:20:15.046Z,98.41
2022-12-31T11:23:02.517Z,98.18
2022-12-31T11:25:54.106Z,98.24
2022-12-31T11:28:35.250Z,98.32
2022-12-31T11:31:28.721Z,98.35
2022-12-31T11:34:01.399Z,98.38
2022-12-31T11:36:53.485Z,98.56
2022-12-31T11:39:49.196Z,98.51
2022-12-31T11:42:26.724Z,98.54
2022-12-31T11:45:11.471Z,98.69
2022-12-31T11:51:12.547Z,98.66
2022-12-31T11:53:38.936Z,98.38
2022-12-31T11:56:23.198Z,98.39
2022-12-31T11:58:52.756Z,98.26
2022-12-31T12:01:36.172Z,97.97
2022-12-31T12:04:03.546Z,97.72
2022-12-31T12:06:32.551Z,97.63
2022-12-31T12:09:03.511Z,97.27
2022-12-31T12:11:34.246Z,97.07
2022-12-31T12:14:03.513Z,97.16
2022-12-31T12:16:30.129Z,96.73
2022-12-31T12:19:10.907Z,96.63
2022-12-31T12:21:46.237Z,96.49
2022-12-31T12:24:23.145Z,96.30
2022-12-31T12:26:49.710Z,96.41
2022-12-31T12:29:22.294Z,96.39
2022-12-31T12:32:03.963Z,96.36
2022-12-31T12:34:40.904Z,96.14
2022-12-31T12:37:36.978Z,95.83
2022-12-31T12:40:19.787Z,95.76
2022-12-31T12:42:53.748Z,95.80
2022-12-31T12:45:21.897Z,96.06
2022-12-31T12:47:53.440Z,95.92
2022-12-31T12:50:23.697Z,95.78
2022-12-31T12:52:59.390Z,95.91
2022-12-31T12:55:37.159Z,95.82
2022-12-31T12:58:30.049Z,95.71
2022-12-31T13:01:05.538Z,95.29
2022-12-31T13:06:51.156Z,94.91
2022-12-31T13:09:58.350Z,94.69
2022-12-31T13:13:22.914Z,94.57
2022-12-31T13:15:50.397Z,94.61
2022-12-31T13:18:41.635Z,94.71
2022-12-31T13:21:41.663Z,94.55
2022-12-31T13:24:50.026Z,94.96
2022-12-31T13:27:34.109Z,95.18
2022-12-31T13:30:04.610Z,95.40
2022-12-31T13:32:42.462Z,95.41
2022-12-31T13:35:32.885Z,95.81
2022-12-31T13:38:06.005Z,95.71
2022-12-31T13:40:54.366Z,95.88
2022-12-31T13:43:50.480Z,95.87
2022-12-31T13:46:40.685Z,95.89
2022-12-31T13:49:34.249Z,95.90
2022-12-31T13:52:19.072Z,96.09
2022-12-31T13:54:54.829Z,96.06
2022-12-31T13:57:45.916Z,96.01
2022-12-31T14:00:25.352Z,95.93
2022-12-31T14:02:58.326Z,96.18
2022-12-31T14:05:33.192Z,96.05
2022-12-31T14:08:01.855Z,96.17
2022-12-31T14:10:41.599Z,96.13
2022-12-31T14:13:49.398Z,95.95
2022-12-31T14:16:40.282Z,95.72
2022-12-31T14:19:16.835Z,95.52
2022-12-31T14:21:54.363Z,95.39
2022-12-31T14:24:32.737Z,94.89
2022-12-31T14:27:03.692Z,94.50
2022-12-31T14:29:54.517Z,94.35
2022-12-31T14:32:23.661Z,93.92
2022-12-31T14:35:15.220Z,94.21
2022-12-31T14:38:05.595Z,94.40
2022-12-31T14:40:56.994Z,94.84
2022-12-31T14:43:29.073Z,94.90
2022-12-31T14:46:15.820Z,94.69
2022-12-31T14:49:09.207Z,94.39
2022-12-31T14:51:37.051Z,93.55
2022-12-31T14:54:04.035Z,93.65
2022-12-31T14:56:45.915Z,93.52
2022-12-31T14:59:33.354Z,93.78
2022-12-31T15:02:03.894Z,94.00
2022-12-31T15:04:46.406Z,94.20
2022-12-31T15:07:43.247Z,94.10
2022-12-31T15:10:26.169Z,93.88
2022-12-31T15:13:18.786Z,93.92
2022-12-31T15:16:04.436Z,94.06
2022-12-31T15:18:55.288Z,94.00
2022-12-31T15:21:36.543Z,94.12
2022-12-31T15:24:20.204Z,94.06
2022-12-31T15:26:53.104Z,93.73
2022-12-31T15:29:26.411Z,93.61
2022-12-31T15:31:54.200Z,92.71
2022-12-31T15:34:25.530Z,92.04
2022-12-31T15:36:59.725Z,91.74
2022-12-31T15:39:32.171Z,91.73
2022-12-31T15:44:59.211Z,91.62
2022-12-31T15:47:38.899Z,91.24
2022-12-31T15:50:12.523Z,90.67
2022-12-31T15:52:44.867Z,90.71
2022-12-31T15:55:42.493Z,90.08
2022-12-31T15:58:19.416Z,89.35
2022-12-31T16:01:11.903Z,89.15
2022-12-31T16:03:44.884Z,88.41
2022-12-31T16:06:14.433Z,88.47
2022-12-31T16:08:45.429Z,88.23
2022-12-31T16:11:12.529Z,87.45
2022-12-31T16:13:48.715Z,88.40
2022-12-31T16:16:23.106Z,87.65
2022-12-31T16:18:53.221Z,86.55
2022-12-31T16:21:38.566Z,86.75
2022-12-31T16:24:23.502Z,86.49
2022-12-31T16:26:53.559Z,86.57
2022-12-31T16:29:22.905Z,86.23
2022-12-31T16:31:52.518Z,86.36
2022-12-31T16:34:24.932Z,86.09
2022-12-31T16:37:01.773Z,86.65
2022-12-31T16:39:36.901Z,86.11
2022-12-31T16:42:23.783Z,86.45
2022-12-31T16:44:54.997Z,85.60
2022-12-31T16:47:24.627Z,85.75
2022-12-31T16:50:12.717Z,85.79
2022-12-31T16:52:44.873Z,84.84
2022-12-31T16:55:24.446Z,85.16
2022-12-31T16:57:58.618Z,84.59
2022-12-31T17:00:26.306Z,84.56
2022-12-31T17:03:11.159Z,84.71
2022-12-31T17:06:10.798Z,84.81
2022-12-31T17:08:40.265Z,84.60
2022-12-31T17:11:28.781Z,84.53
2022-12-31T17:14:12.873Z,83.95
2022-12-31T17:17:02.981Z,84.02
2022-12-31T17:19:41.894Z,83.69
2022-12-31T17:22:41.977Z,83.31
2022-12-31T17:25:18.622Z,82.98
2022-12-31T17:28:02.304Z,83.52
2022-12-31T17:30:35.226Z,83.25
2022-12-31T17:33:06.110Z,82.94
2022-12-31T17:35:42.098Z,82.95
2022-12-31T17:38:17.835Z,82.68
2022-12-31T17:40:53.442Z,82.17
2022-12-31T17:43:22.864Z,82.25
2022-12-31T17:45:54.440Z,81.44
2022-12-31T17:48:24.304Z,81.25
2022-12-31T17:50:56.135Z,80.99
2022-12-31T17:53:23.511Z,81.29
2022-12-31T17:55:52.525Z,80.83
2022-12-31T17:58:44.642Z,81.20
2022-12-31T18:01:15.538Z,80.60
2022-12-31T18:03:42.323Z,80.32
2022-12-31T18:06:14.630Z,80.42
2022-12-31T18:08:43.314Z,80.19
2022-12-31T18:11:20.978Z,80.26
2022-12-31T18:13:48.265Z,80.05
2022-12-31T18:16:15.706Z,79.75
2022-12-31T18:18:43.714Z,79.80
2022-12-31T18:21:28.964Z,80.14
2022-12-31T18:26:23.523Z,79.51
2022-12-31T18:28:50.779Z,78.83
2022-12-31T18:31:20.612Z,78.52
2022-12-31T18:33:48.111Z,77.85
2022-12-31T18:36:16.913Z,78.19
2022-12-31T18:38:43.575Z,77.70
2022-12-31T18:41:22.413Z,77.53
2022-12-31T18:43:49.329Z,77.48
2022-12-31T18:46:24.458Z,77.59
2022-12-31T18:48:50.895Z,76.69
2022-12-31T18:51:20.437Z,76.71
2022-12-31T18:53:47.230Z,75.26
2022-12-31T18:56:16.754Z,75.18
2022-12-31T18:58:44.058Z,74.50
2022-12-31T19:01:30.405Z,75.03
2022-12-31T19:04:02.399Z,74.63
2022-12-31T19:06:30.066Z,74.79
2022-12-31T19:08:56.654Z,74.00
2022-12-31T19:11:23.702Z,73.62
2022-12-31T19:13:50.325Z,73.62
2022-12-31T19:16:17.987Z,73.07
2022-12-31T19:18:45.207Z,73.33
2022-12-31T19:21:20.707Z,72.22
2022-12-31T19:23:47.194Z,72.12
2022-12-31T19:26:19.326Z,71.11
2022-12-31T19:28:47.060Z,72.33
2022-12-31T19:31:14.476Z,71.49
2022-12-31T19:33:42.623Z,72.37
2022-12-31T19:36:20.279Z,71.72
2022-12-31T19:38:47.319Z,70.88
2022-12-31T19:41:19.429Z,71.54
2022-12-31T19:43:47.475Z,70.68
2022-12-31T19:46:16.165Z,71.52
2022-12-31T19:48:43.557Z,70.14
2022-12-31T19:51:12.491Z,70.35
2022-12-31T19:53:39.330Z,70.65
2022-12-31T19:56:06.079Z,69.45
2022-12-31T19:58:32.659Z,69.41
2022-12-31T20:01:03.190Z,69.79
2022-12-31T20:03:32.383Z,69.59
2022-12-31T20:06:10.550Z,71.29
2022-12-31T20:08:38.787Z,70.96
2022-12-31T20:11:24.391Z,70.88
2022-12-31T20:13:53.500Z,70.33
2022-12-31T20:16:23.422Z,69.82
2022-12-31T20:18:50.577Z,69.74
2022-12-31T20:21:20.891Z,70.40
2022-12-31T20:23:49.010Z,69.61
2022-12-31T20:26:15.703Z,69.53
2022-12-31T20:28:42.556Z,69.60
2022-12-31T20:31:15.993Z,68.75
2022-12-31T20:33:43.168Z,69.13
2022-12-31T20:36:12.433Z,69.39
2022-12-31T20:38:38.838Z,68.62
2022-12-31T20:41:09.501Z,68.71
2022-12-31T20:43:36.497Z,69.63
2022-12-31T20:46:16.156Z,68.94
2022-12-31T20:48:44.473Z,68.94
2022-12-31T20:51:12.577Z,68.52
2022-12-31T20:53:39.022Z,68.65
2022-12-31T20:56:08.819Z,69.00
2022-12-31T20:58:35.722Z,68.41
2022-12-31T21:01:06.316Z,68.07
2022-12-31T21:04:04.223Z,68.31
2022-12-31T21:06:21.686Z,68.51
2022-12-31T21:08:48.433Z,68.46
2022-12-31T21:11:34.098Z,67.37
2022-12-31T21:14:01.033Z,68.05
2022-12-31T21:16:28.310Z,68.02
2022-12-31T21:18:54.941Z,68.38
2022-12-31T21:21:21.897Z,67.85
2022-12-31T21:23:48.341Z,68.60
2022-12-31T21:26:14.946Z,67.71
2022-12-31T21:28:41.695Z,67.93
2022-12-31T21:31:08.963Z,68.47
2022-12-31T21:33:35.441Z,67.60
2022-12-31T21:36:04.652Z,67.30
2022-12-31T21:38:31.556Z,67.81
2022-12-31T21:41:03.106Z,67.76
2022-12-31T21:43:29.768Z,68.12
2022-12-31T21:46:04.724Z,68.27
2022-12-31T21:48:32.136Z,67.76
2022-12-31T21:51:12.795Z,68.80
2022-12-31T21:53:39.370Z,68.56
2022-12-31T21:56:09.317Z,67.71
2022-12-31T21:58:41.964Z,67.70
2022-12-31T22:01:38.796Z,68.23
2022-12-31T22:04:07.918Z,67.87
2022-12-31T22:06:39.562Z,67.81
2022-12-31T22:09:05.976Z,67.60
2022-12-31T22:11:32.442Z,67.18
2022-12-31T22:13:58.888Z,67.13
2022-12-31T22:16:25.562Z,68.19
2022-12-31T22:18:55.223Z,66.70
2022-12-31T22:21:24.172Z,66.86
2022-12-31T22:23:52.962Z,67.04
2022-12-31T22:26:25.484Z,66.87
2022-12-31T22:28:52.589Z,66.97
2022-12-31T22:31:24.982Z,66.05
2022-12-31T22:33:52.280Z,66.10
2022-12-31T22:36:21.232Z,66.26
2022-12-31T22:38:49.009Z,66.76
2022-12-31T22:41:19.179Z,67.13
2022-12-31T22:43:51.546Z,67.04
2022-12-31T22:46:21.135Z,66.52
2022-12-31T22:48:47.884Z,66.65
2022-12-31T22:51:16.064Z,66.27
2022-12-31T22:53:43.456Z,66.16
2022-12-31T22:56:12.669Z,65.98
2022-12-31T22:58:39.182Z,65.83
2022-12-31T23:01:07.754Z,65.74
2022-12-31T23:03:34.740Z,66.17
2022-12-31T23:06:01.235Z,66.49
2022-12-31T23:08:27.718Z,66.35
2022-12-31T23:11:01.170Z,66.65
2022-12-31T23:13:51.379Z,66.43
2022-12-31T23:16:37.942Z,66.30
2022-12-31T23:19:24.628Z,66.15
2022-12-31T23:22:09.867Z,65.33
2022-12-31T23:24:36.752Z,65.70
2022-12-31T23:27:03.772Z,65.81
2022-12-31T23:29:30.232Z,65.55
2022-12-31T23:31:56.743Z,66.14
2022-12-31T23:34:23.302Z,65.77
2022-12-31T23:36:49.744Z,65.50
2022-12-31T23:39:16.264Z,65.67
2022-12-31T23:41:42.862Z,65.51
2022-12-31T23:44:11.918Z,65.49
2022-12-31T23:46:39.053Z,66.35
2022-12-31T23:49:06.105Z,65.68
2022-12-31T23:51:32.845Z,65.82
2022-12-31T23:53:59.233Z,65.48
2022-12-31T23:56:25.690Z,66.16
2022-12-31T23:58:56.428Z,66.20
